Time;durP1;ratioP1;P1;durP2;ratioP2;P2;SDS_P1;SDS_P2;PMS_P1;PMS_P2;Temp;Humidity;BMP_temperature;BMP_pressure;BME280_temperature;BME280_humidity;BME280_pressure;Samples;Min_cycle;Max_cycle;Signal;HPM_P1;HPM_P2
2021/10/01 09:26:26;;;;;;;6.63;1.90;;;16.20;99.90;;;;;;14622167;22;15112725;-68
2021/10/01 09:32:16;;;;;;;5.88;1.70;;;16.20;99.90;;;;;;14573638;23;20230;-69
2021/10/01 09:38:08;;;;;;;9.63;2.08;;;16.10;99.90;;;;;;14538981;23;20028;-69
2021/10/01 09:44:16;;;;;;;8.00;1.93;;;16.20;99.90;;;;;;14611290;23;20035;-68
2021/10/01 10:02:55;;;;;;;10.27;1.92;;;16.10;99.90;;;;;;14769119;22;20028;-68
2021/10/01 10:08:54;;;;;;;9.85;2.20;;;16.10;99.90;;;;;;14737649;23;20076;-69
2021/10/01 10:14:49;;;;;;;4.45;1.45;;;16.10;99.90;;;;;;14583323;23;20021;-68
2021/10/01 10:20:40;;;;;;;6.57;1.60;;;16.30;99.90;;;;;;14629859;23;20112;-69
2021/10/01 10:26:29;;;;;;;6.95;1.60;;;16.50;99.90;;;;;;14553908;23;20025;-69
2021/10/01 10:32:22;;;;;;;2.72;1.45;;;16.60;99.90;;;;;;14638140;23;20107;-69
2021/10/01 10:38:34;;;;;;;6.40;1.67;;;16.80;99.90;;;;;;14565699;22;20021;-69
2021/10/01 10:44:42;;;;;;;12.82;1.77;;;16.80;99.90;;;;;;14589524;23;20092;-70
2021/10/01 10:50:50;;;;;;;8.65;1.20;;;16.70;99.90;;;;;;14586421;23;20099;-69
2021/10/01 10:56:39;;;;;;;8.07;1.83;;;16.70;99.90;;;;;;14677054;23;20025;-69
2021/10/01 11:08:31;;;;;;;6.82;1.70;;;16.60;99.90;;;;;;14647962;23;20028;-69
2021/10/01 11:14:23;;;;;;;8.13;1.58;;;17.00;99.90;;;;;;14678955;22;20037;-69
2021/10/01 11:20:37;;;;;;;8.68;1.50;;;17.30;99.90;;;;;;14600049;23;20032;-70
2021/10/01 11:26:27;;;;;;;8.07;1.27;;;17.40;99.90;;;;;;14596290;23;20103;-68
2021/10/01 11:32:26;;;;;;;6.50;1.20;;;17.50;99.90;;;;;;14585147;23;20479;-70
2021/10/01 11:38:23;;;;;;;6.07;1.00;;;17.20;99.90;;;;;;14652201;23;20032;-69
2021/10/01 11:44:14;;;;;;;5.78;1.23;;;17.30;99.90;;;;;;14658439;23;20123;-69
2021/10/01 11:50:10;;;;;;;6.40;1.30;;;17.20;99.90;;;;;;14661438;23;20017;-70
2021/10/01 11:56:01;;;;;;;4.30;1.00;;;17.50;99.90;;;;;;14661516;23;20052;-70
2021/10/01 12:02:00;;;;;;;9.35;1.33;;;17.70;99.90;;;;;;14672358;23;20022;-69
2021/10/01 12:13:59;;;;;;;4.57;1.30;;;18.00;99.90;;;;;;14646215;22;20021;-69
2021/10/01 12:26:03;;;;;;;9.13;1.50;;;18.60;99.90;;;;;;14739540;22;20024;-69
2021/10/01 12:31:54;;;;;;;8.23;1.50;;;18.40;99.90;;;;;;14603939;23;20021;-69
2021/10/01 12:37:42;;;;;;;21.23;12.35;;;18.00;99.90;;;;;;14741977;23;20111;-66
2021/10/01 12:43:44;;;;;;;9.25;3.10;;;17.80;99.90;;;;;;14674639;23;20505;-68
2021/10/01 12:49:32;;;;;;;7.10;1.40;;;18.10;99.90;;;;;;14782331;22;20104;-68
2021/10/01 12:55:22;;;;;;;5.82;1.35;;;18.00;99.90;;;;;;14766037;23;20029;-68
2021/10/01 13:01:18;;;;;;;7.72;1.75;;;18.10;99.90;;;;;;14703739;22;20029;-68
2021/10/01 13:07:34;;;;;;;13.57;1.58;;;18.00;99.90;;;;;;14737608;22;20021;-69
2021/10/01 13:13:23;;;;;;;10.30;1.48;;;17.90;99.90;;;;;;14723042;23;20112;-69
2021/10/01 13:19:14;;;;;;;4.15;1.23;;;17.80;99.90;;;;;;14747733;23;20139;-69
2021/10/01 13:25:01;;;;;;;7.03;1.60;;;17.60;99.90;;;;;;14711989;22;20087;-69
2021/10/01 13:30:50;;;;;;;8.95;2.58;;;17.70;99.90;;;;;;14556891;22;20022;-69
2021/10/01 13:36:39;;;;;;;15.63;4.07;;;17.60;99.90;;;;;;14625431;23;20036;-69
2021/10/01 13:42:27;;;;;;;12.90;2.67;;;17.60;99.90;;;;;;14712478;22;20025;-68
2021/10/01 13:48:14;;;;;;;9.63;1.60;;;17.50;99.90;;;;;;14700339;22;20025;-69
2021/10/01 13:54:02;;;;;;;6.45;1.83;;;17.40;99.90;;;;;;14697858;22;20029;-69
2021/10/01 13:59:51;;;;;;;12.98;2.13;;;17.30;99.90;;;;;;14714557;22;20553;-68
2021/10/01 14:05:38;;;;;;;11.20;2.13;;;17.30;99.90;;;;;;14715499;22;20025;-69
2021/10/01 14:11:34;;;;;;;8.95;2.10;;;17.20;99.90;;;;;;14718177;22;20049;-68
2021/10/01 14:17:29;;;;;;;4.65;2.10;;;17.40;99.90;;;;;;14706113;23;20095;-69
2021/10/01 14:23:16;;;;;;;11.82;2.47;;;17.30;99.90;;;;;;14780604;22;20427;-69
2021/10/01 14:29:32;;;;;;;7.40;1.77;;;17.20;99.90;;;;;;14534280;23;20021;-70
2021/10/01 14:35:41;;;;;;;10.68;1.75;;;16.80;99.90;;;;;;14679269;23;20115;-69
2021/10/01 14:41:44;;;;;;;12.45;2.45;;;16.80;99.90;;;;;;14717378;23;20486;-69
2021/10/01 14:47:32;;;;;;;13.40;2.42;;;16.90;99.90;;;;;;14712909;23;20025;-69
2021/10/01 14:53:20;;;;;;;9.23;2.20;;;17.10;99.90;;;;;;14695936;22;20092;-69
2021/10/01 14:59:14;;;;;;;7.25;2.33;;;16.80;99.90;;;;;;14696565;22;20115;-68
2021/10/01 15:11:04;;;;;;;12.10;2.75;;;16.90;99.90;;;;;;14695245;22;20017;-69
2021/10/01 15:17:00;;;;;;;9.43;3.00;;;16.90;99.90;;;;;;14679516;23;20088;-68
2021/10/01 15:22:50;;;;;;;15.25;3.78;;;17.00;99.90;;;;;;14619289;22;20080;-68
2021/10/01 15:34:49;;;;;;;17.60;4.57;;;17.00;99.90;;;;;;14570641;23;20133;-69
2021/10/01 15:40:40;;;;;;;9.10;4.30;;;17.00;99.90;;;;;;14665857;23;20030;-69
2021/10/01 15:46:40;;;;;;;6.60;2.95;;;17.00;99.90;;;;;;14697072;22;20029;-69
2021/10/01 15:52:27;;;;;;;8.02;2.30;;;16.90;99.90;;;;;;14628628;22;20062;-68
2021/10/01 15:58:15;;;;;;;6.97;2.13;;;16.80;99.90;;;;;;14734054;22;20056;-69
